createdAt,value
2022-10-01T00:00:05.126Z,997
2022-10-01T00:03:05.324Z,997
2022-10-01T00:06:05.128Z,997
2022-10-01T00:09:05.176Z,997
2022-10-01T00:12:05.287Z,997
2022-10-01T00:15:15.497Z,997
2022-10-01T00:18:05.122Z,997
2022-10-01T00:21:05.601Z,996
2022-10-01T00:24:05.155Z,996
2022-10-01T00:27:05.123Z,996
2022-10-01T00:30:05.172Z,996
2022-10-01T00:33:05.076Z,996
2022-10-01T00:36:05.155Z,996
2022-10-01T00:39:05.499Z,996
2022-10-01T00:42:05.083Z,996
2022-10-01T00:45:05.155Z,996
2022-10-01T00:48:05.218Z,996
2022-10-01T00:51:05.092Z,996
2022-10-01T00:54:05.175Z,996
2022-10-01T00:57:05.075Z,996
2022-10-01T01:00:05.130Z,996
2022-10-01T01:03:05.097Z,996
2022-10-01T01:06:05.115Z,996
2022-10-01T01:09:05.150Z,996
2022-10-01T01:12:05.104Z,996
2022-10-01T01:15:05.250Z,996
2022-10-01T01:18:05.142Z,996
2022-10-01T01:21:05.060Z,996
2022-10-01T01:24:05.074Z,996
2022-10-01T01:27:05.098Z,996
2022-10-01T01:30:05.108Z,996
2022-10-01T01:33:05.065Z,996
2022-10-01T01:36:05.107Z,996
2022-10-01T01:39:05.119Z,996
2022-10-01T01:42:05.097Z,996
2022-10-01T01:45:05.211Z,995
2022-10-01T01:48:05.130Z,995
2022-10-01T01:51:05.155Z,995
2022-10-01T01:54:05.080Z,995
2022-10-01T01:57:05.110Z,995
2022-10-01T02:00:05.116Z,995
2022-10-01T02:03:05.208Z,995
2022-10-01T02:06:05.109Z,995
2022-10-01T02:09:05.160Z,995
2022-10-01T02:12:05.324Z,995
2022-10-01T02:15:05.157Z,996
2022-10-01T02:18:05.150Z,996
2022-10-01T02:21:05.105Z,996
2022-10-01T02:24:05.126Z,995
2022-10-01T02:27:05.090Z,995
2022-10-01T02:30:05.153Z,995
2022-10-01T02:33:05.136Z,995
2022-10-01T02:36:05.133Z,995
2022-10-01T02:39:05.129Z,995
2022-10-01T02:42:05.122Z,995
2022-10-01T02:45:05.073Z,995
2022-10-01T02:48:05.042Z,995
2022-10-01T02:51:05.068Z,995
2022-10-01T02:54:05.180Z,995
2022-10-01T02:57:05.088Z,995
2022-10-01T03:00:05.151Z,995
2022-10-01T03:03:05.303Z,995
2022-10-01T03:06:05.127Z,995
2022-10-01T03:09:05.116Z,995
2022-10-01T03:12:05.134Z,995
2022-10-01T03:15:05.137Z,995
2022-10-01T03:18:05.165Z,995
2022-10-01T03:21:05.125Z,995
2022-10-01T03:24:05.120Z,995
2022-10-01T03:27:05.116Z,994
2022-10-01T03:30:05.173Z,994
2022-10-01T03:33:05.166Z,994
2022-10-01T03:36:05.082Z,994
2022-10-01T03:39:05.121Z,994
2022-10-01T03:42:05.171Z,994
2022-10-01T03:45:05.087Z,994
2022-10-01T03:48:05.097Z,994
2022-10-01T03:51:05.105Z,994
2022-10-01T03:54:05.109Z,994
2022-10-01T03:57:05.108Z,994
2022-10-01T04:00:05.232Z,994
2022-10-01T04:03:05.451Z,994
2022-10-01T04:06:05.075Z,994
2022-10-01T04:09:05.101Z,994
2022-10-01T04:12:05.114Z,994
2022-10-01T04:15:05.107Z,994
2022-10-01T04:18:05.100Z,994
2022-10-01T04:21:05.087Z,994
2022-10-01T04:24:05.078Z,994
2022-10-01T04:27:05.075Z,994
2022-10-01T04:30:05.162Z,994
2022-10-01T04:33:05.128Z,993
2022-10-01T04:36:05.079Z,993
2022-10-01T04:39:07.471Z,993
2022-10-01T04:42:05.106Z,993
2022-10-01T04:45:05.138Z,993
2022-10-01T04:48:05.143Z,993
2022-10-01T04:51:05.128Z,993
2022-10-01T04:54:05.174Z,993
2022-10-01T04:57:05.063Z,993
2022-10-01T05:00:05.159Z,993
2022-10-01T05:03:05.043Z,993
2022-10-01T05:06:05.129Z,993
2022-10-01T05:09:05.111Z,993
2022-10-01T05:12:05.151Z,993
2022-10-01T05:15:05.155Z,993
2022-10-01T05:18:05.104Z,993
2022-10-01T05:21:05.167Z,993
2022-10-01T05:24:05.713Z,993
2022-10-01T05:27:05.130Z,993
2022-10-01T05:30:05.131Z,993
2022-10-01T05:33:05.208Z,993
2022-10-01T05:36:05.156Z,993
2022-10-01T05:39:05.091Z,993
2022-10-01T05:42:10.962Z,992
2022-10-01T05:45:05.185Z,992
2022-10-01T05:48:05.183Z,992
2022-10-01T05:51:05.140Z,992
2022-10-01T05:54:05.173Z,992
2022-10-01T05:57:05.130Z,992
2022-10-01T06:00:05.231Z,992
2022-10-01T06:03:05.550Z,992
2022-10-01T06:06:05.148Z,992
2022-10-01T06:09:05.152Z,992
2022-10-01T06:12:05.153Z,992
2022-10-01T06:15:05.128Z,992
2022-10-01T06:18:05.302Z,992
2022-10-01T06:21:05.117Z,992
2022-10-01T06:24:05.159Z,992
2022-10-01T06:27:05.187Z,992
2022-10-01T06:30:05.130Z,991
2022-10-01T06:33:05.171Z,991
2022-10-01T06:36:05.171Z,991
2022-10-01T06:39:05.210Z,991
2022-10-01T06:42:05.163Z,991
2022-10-01T06:45:05.122Z,991
2022-10-01T06:48:05.175Z,991
2022-10-01T06:51:05.088Z,991
2022-10-01T06:54:05.109Z,991
2022-10-01T06:57:05.271Z,992
2022-10-01T07:00:05.229Z,992
2022-10-01T07:03:05.232Z,992
2022-10-01T07:06:05.152Z,992
2022-10-01T07:09:05.127Z,992
2022-10-01T07:12:05.226Z,992
2022-10-01T07:15:05.102Z,991
2022-10-01T07:18:05.170Z,991
2022-10-01T07:21:05.134Z,991
2022-10-01T07:24:05.128Z,991
2022-10-01T07:27:11.905Z,991
2022-10-01T07:30:05.142Z,991
2022-10-01T07:33:05.109Z,991
2022-10-01T07:36:05.169Z,991
2022-10-01T07:39:05.169Z,991
2022-10-01T07:42:05.125Z,991
2022-10-01T07:45:05.177Z,991
2022-10-01T07:48:05.182Z,991
2022-10-01T07:51:05.136Z,991
2022-10-01T07:54:05.180Z,991
2022-10-01T07:57:05.170Z,991
2022-10-01T08:00:05.232Z,991
2022-10-01T08:03:05.136Z,991
2022-10-01T08:06:05.157Z,991
2022-10-01T08:09:05.156Z,991
2022-10-01T08:12:05.113Z,991
2022-10-01T08:15:05.181Z,991
2022-10-01T08:18:05.216Z,991
2022-10-01T08:21:05.218Z,991
2022-10-01T08:24:05.115Z,991
2022-10-01T08:27:05.171Z,991
2022-10-01T08:30:05.226Z,991
2022-10-01T08:33:05.134Z,991
2022-10-01T08:36:05.128Z,991
2022-10-01T08:39:05.161Z,991
2022-10-01T08:42:05.148Z,991
2022-10-01T08:45:05.173Z,991
2022-10-01T08:48:05.166Z,991
2022-10-01T08:51:05.117Z,991
2022-10-01T08:54:05.198Z,991
2022-10-01T08:57:05.112Z,991
2022-10-01T09:00:05.284Z,991
2022-10-01T09:03:05.099Z,991
2022-10-01T09:06:05.137Z,991
2022-10-01T09:09:05.131Z,991
2022-10-01T09:12:05.190Z,991
2022-10-01T09:15:05.178Z,991
2022-10-01T09:18:05.202Z,991
2022-10-01T09:21:05.144Z,991
2022-10-01T09:24:05.124Z,991
2022-10-01T09:27:05.178Z,991
2022-10-01T09:30:05.194Z,991
2022-10-01T09:33:05.266Z,991
2022-10-01T09:36:05.175Z,991
2022-10-01T09:39:05.312Z,991
2022-10-01T09:42:05.160Z,990
2022-10-01T09:45:05.157Z,990
2022-10-01T09:48:05.198Z,990
2022-10-01T09:51:05.156Z,990
2022-10-01T09:54:05.153Z,990
2022-10-01T09:57:05.147Z,990
2022-10-01T10:00:05.216Z,990
2022-10-01T10:03:05.774Z,990
2022-10-01T10:06:05.203Z,990
2022-10-01T10:09:05.208Z,990
2022-10-01T10:12:05.115Z,991
2022-10-01T10:15:05.162Z,991
2022-10-01T10:18:05.182Z,991
2022-10-01T10:21:05.144Z,991
2022-10-01T10:24:05.171Z,991
2022-10-01T10:27:05.257Z,991
2022-10-01T10:30:05.252Z,991
2022-10-01T10:33:05.119Z,991
2022-10-01T10:36:05.216Z,991
2022-10-01T10:39:05.168Z,991
2022-10-01T10:42:05.175Z,991
2022-10-01T10:45:05.227Z,991
2022-10-01T10:48:05.146Z,991
2022-10-01T10:51:05.222Z,991
2022-10-01T10:54:05.240Z,991
2022-10-01T10:57:05.114Z,991
2022-10-01T11:00:05.261Z,991
2022-10-01T11:03:05.143Z,991
2022-10-01T11:06:05.209Z,991
2022-10-01T11:09:05.238Z,991
2022-10-01T11:12:05.312Z,991
2022-10-01T11:15:05.141Z,991
2022-10-01T11:18:05.208Z,991
2022-10-01T11:21:05.124Z,991
2022-10-01T11:24:05.202Z,991
2022-10-01T11:27:05.133Z,991
2022-10-01T11:30:05.209Z,991
2022-10-01T11:33:05.154Z,991
2022-10-01T11:36:05.280Z,991
2022-10-01T11:39:05.140Z,991
2022-10-01T11:42:05.160Z,991
2022-10-01T11:45:05.657Z,991
2022-10-01T11:48:05.168Z,991
2022-10-01T11:51:05.199Z,991
2022-10-01T11:54:05.130Z,991
2022-10-01T11:57:05.105Z,991
2022-10-01T12:00:05.308Z,991
2022-10-01T12:03:05.099Z,991
2022-10-01T12:06:05.178Z,991
2022-10-01T12:09:05.113Z,991
2022-10-01T12:12:05.159Z,991
2022-10-01T12:15:11.579Z,991
2022-10-01T12:18:05.319Z,991
2022-10-01T12:21:05.186Z,991
2022-10-01T12:24:05.146Z,991
2022-10-01T12:27:05.141Z,991
2022-10-01T12:30:05.185Z,992
2022-10-01T12:33:05.094Z,992
2022-10-01T12:36:05.242Z,992
2022-10-01T12:39:05.240Z,991
2022-10-01T12:42:05.105Z,991
2022-10-01T12:45:05.162Z,991
2022-10-01T12:48:05.102Z,991
2022-10-01T12:51:05.200Z,991
2022-10-01T12:54:05.196Z,991
2022-10-01T12:57:05.133Z,991
2022-10-01T13:00:05.225Z,991
2022-10-01T13:03:05.166Z,991
2022-10-01T13:06:05.187Z,991
2022-10-01T13:09:05.131Z,991
2022-10-01T13:12:05.218Z,991
2022-10-01T13:15:05.131Z,991
2022-10-01T13:18:05.175Z,991
2022-10-01T13:21:05.183Z,991
2022-10-01T13:24:05.232Z,991
2022-10-01T13:27:05.109Z,991
2022-10-01T13:30:05.294Z,992
2022-10-01T13:33:05.162Z,992
2022-10-01T13:36:05.179Z,992
2022-10-01T13:39:05.182Z,992
2022-10-01T13:42:05.199Z,992
2022-10-01T13:45:05.191Z,992
2022-10-01T13:48:05.141Z,992
2022-10-01T13:51:05.188Z,992
2022-10-01T13:54:05.133Z,992
2022-10-01T13:57:05.091Z,992
2022-10-01T14:00:05.312Z,992
2022-10-01T14:03:05.478Z,992
2022-10-01T14:06:05.177Z,992
2022-10-01T14:09:05.166Z,992
2022-10-01T14:12:05.205Z,992
2022-10-01T14:15:05.189Z,992
2022-10-01T14:18:05.155Z,992
2022-10-01T14:21:05.157Z,992
2022-10-01T14:24:05.174Z,992
2022-10-01T14:27:05.156Z,992
2022-10-01T14:30:05.167Z,992
2022-10-01T14:33:05.167Z,992
2022-10-01T14:36:05.122Z,992
2022-10-01T14:39:05.117Z,992
2022-10-01T14:42:05.200Z,992
2022-10-01T14:45:05.110Z,992
2022-10-01T14:48:05.184Z,992
2022-10-01T14:51:05.135Z,992
2022-10-01T14:54:05.208Z,992
2022-10-01T14:57:07.315Z,992
2022-10-01T15:00:05.378Z,993
2022-10-01T15:03:05.221Z,993
2022-10-01T15:06:05.196Z,993
2022-10-01T15:09:05.205Z,993
2022-10-01T15:12:05.101Z,993
2022-10-01T15:15:05.123Z,993
2022-10-01T15:18:05.160Z,993
2022-10-01T15:21:05.129Z,993
2022-10-01T15:24:05.176Z,993
2022-10-01T15:27:05.170Z,993
2022-10-01T15:30:05.432Z,993
2022-10-01T15:33:05.127Z,993
2022-10-01T15:36:05.208Z,993
2022-10-01T15:39:05.240Z,993
2022-10-01T15:42:05.169Z,993
2022-10-01T15:45:05.133Z,993
2022-10-01T15:48:05.146Z,993
2022-10-01T15:51:05.162Z,993
2022-10-01T15:54:05.167Z,993
2022-10-01T15:57:05.198Z,993
2022-10-01T16:00:05.133Z,993
2022-10-01T16:03:05.204Z,993
2022-10-01T16:06:05.160Z,993
2022-10-01T16:09:05.148Z,993
2022-10-01T16:12:05.127Z,994
2022-10-01T16:15:05.184Z,993
2022-10-01T16:18:05.156Z,993
2022-10-01T16:21:05.401Z,993
2022-10-01T16:24:05.121Z,993
2022-10-01T16:27:05.132Z,993
2022-10-01T16:30:10.351Z,993
2022-10-01T16:33:05.103Z,994
2022-10-01T16:36:05.112Z,994
2022-10-01T16:39:05.175Z,994
2022-10-01T16:42:28.575Z,994
2022-10-01T16:45:05.175Z,994
2022-10-01T16:48:05.168Z,994
2022-10-01T16:51:05.151Z,994
2022-10-01T16:54:05.225Z,994
2022-10-01T16:57:05.142Z,994
2022-10-01T17:00:05.156Z,994
2022-10-01T17:03:05.093Z,994
2022-10-01T17:06:05.240Z,995
2022-10-01T17:09:05.088Z,995
2022-10-01T17:12:05.090Z,995
2022-10-01T17:15:05.173Z,995
2022-10-01T17:18:05.079Z,995
2022-10-01T17:21:05.224Z,995
2022-10-01T17:24:05.160Z,995
2022-10-01T17:27:05.108Z,995
2022-10-01T17:30:05.169Z,995
2022-10-01T17:33:05.080Z,995
2022-10-01T17:36:05.125Z,995
2022-10-01T17:39:05.065Z,995
2022-10-01T17:42:05.086Z,995
2022-10-01T17:45:05.110Z,995
2022-10-01T17:48:05.137Z,995
2022-10-01T17:51:05.261Z,995
2022-10-01T17:54:05.103Z,995
2022-10-01T17:57:05.108Z,996
2022-10-01T18:00:05.312Z,996
2022-10-01T18:03:05.466Z,996
2022-10-01T18:06:05.073Z,996
2022-10-01T18:09:05.132Z,995
2022-10-01T18:12:05.139Z,995
2022-10-01T18:15:05.130Z,995
2022-10-01T18:21:05.144Z,995
2022-10-01T18:24:09.487Z,995
2022-10-01T18:27:05.164Z,996
2022-10-01T18:30:05.119Z,996
2022-10-01T18:33:05.167Z,996
2022-10-01T18:36:05.136Z,996
2022-10-01T18:39:05.125Z,996
2022-10-01T18:42:05.176Z,996
2022-10-01T18:45:05.121Z,996
2022-10-01T18:48:05.149Z,996
2022-10-01T18:51:05.125Z,996
2022-10-01T18:54:05.339Z,996
2022-10-01T18:57:05.123Z,997
2022-10-01T19:00:05.155Z,997
2022-10-01T19:03:05.091Z,997
2022-10-01T19:06:05.122Z,997
2022-10-01T19:09:05.159Z,996
2022-10-01T19:12:05.108Z,996
2022-10-01T19:15:05.137Z,996
2022-10-01T19:18:05.122Z,996
2022-10-01T19:21:05.156Z,996
2022-10-01T19:24:05.132Z,996
2022-10-01T19:27:05.234Z,996
2022-10-01T19:30:05.113Z,997
2022-10-01T19:33:05.137Z,997
2022-10-01T19:36:05.145Z,997
2022-10-01T19:39:05.168Z,997
2022-10-01T19:42:05.125Z,997
2022-10-01T19:45:05.126Z,997
2022-10-01T19:48:05.127Z,997
2022-10-01T19:51:05.091Z,997
2022-10-01T19:54:05.163Z,997
2022-10-01T19:57:05.112Z,997
2022-10-01T20:00:05.158Z,997
2022-10-01T20:03:05.126Z,997
2022-10-01T20:06:05.107Z,997
2022-10-01T20:09:05.125Z,997
2022-10-01T20:12:05.165Z,997
2022-10-01T20:15:05.109Z,997
2022-10-01T20:18:05.120Z,997
2022-10-01T20:21:05.113Z,997
2022-10-01T20:24:05.119Z,997
2022-10-01T20:27:05.144Z,997
2022-10-01T20:30:05.168Z,998
2022-10-01T20:33:05.091Z,998
2022-10-01T20:36:05.088Z,998
2022-10-01T20:39:05.142Z,998
2022-10-01T20:42:05.119Z,998
2022-10-01T20:45:05.277Z,998
2022-10-01T20:48:05.120Z,998
2022-10-01T20:51:05.122Z,998
2022-10-01T20:54:05.137Z,998
2022-10-01T20:57:05.122Z,998
2022-10-01T21:00:05.195Z,998
2022-10-01T21:03:05.117Z,998
2022-10-01T21:06:05.322Z,998
2022-10-01T21:09:05.073Z,998
2022-10-01T21:12:05.197Z,998
2022-10-01T21:15:05.099Z,998
2022-10-01T21:18:05.132Z,998
2022-10-01T21:21:05.197Z,998
2022-10-01T21:24:05.130Z,998
2022-10-01T21:27:05.108Z,998
2022-10-01T21:30:05.176Z,998
2022-10-01T21:33:07.226Z,998
2022-10-01T21:36:05.860Z,998
2022-10-01T21:39:05.075Z,998
2022-10-01T21:42:05.217Z,999
2022-10-01T21:45:05.136Z,999
2022-10-01T21:48:05.105Z,999
2022-10-01T21:51:05.083Z,999
2022-10-01T21:54:05.109Z,999
2022-10-01T21:57:05.064Z,999
2022-10-01T22:00:06.562Z,999
2022-10-01T22:03:05.092Z,999
2022-10-01T22:06:05.138Z,999
2022-10-01T22:09:05.125Z,999
2022-10-01T22:12:05.094Z,999
2022-10-01T22:15:05.094Z,999
2022-10-01T22:18:05.197Z,999
2022-10-01T22:21:05.085Z,999
2022-10-01T22:24:05.111Z,999
2022-10-01T22:27:05.130Z,999
2022-10-01T22:30:05.207Z,999
2022-10-01T22:33:05.121Z,1000
2022-10-01T22:36:05.090Z,1000
2022-10-01T22:39:05.134Z,1000
2022-10-01T22:42:05.137Z,1000
2022-10-01T22:45:05.080Z,1000
2022-10-01T22:48:05.145Z,1000
2022-10-01T22:51:05.059Z,1000
2022-10-01T22:54:05.127Z,1000
2022-10-01T22:57:05.081Z,1000
2022-10-01T23:00:05.174Z,1000
2022-10-01T23:03:05.107Z,999
2022-10-01T23:06:05.134Z,999
2022-10-01T23:09:05.163Z,999
2022-10-01T23:12:05.159Z,999
2022-10-01T23:15:05.107Z,999
2022-10-01T23:18:05.126Z,999
2022-10-01T23:21:05.079Z,999
2022-10-01T23:24:05.096Z,999
2022-10-01T23:27:05.103Z,1000
2022-10-01T23:30:05.239Z,1000
2022-10-01T23:33:05.145Z,1000
2022-10-01T23:36:05.166Z,1000
2022-10-01T23:39:05.145Z,1000
2022-10-01T23:42:05.136Z,1000
2022-10-01T23:45:05.107Z,1000
2022-10-01T23:48:05.178Z,1000
2022-10-01T23:51:05.170Z,1000
2022-10-01T23:54:05.204Z,1000
2022-10-01T23:57:05.133Z,1000
